Time;durP1;ratioP1;P1;durP2;ratioP2;P2;SDS_P1;SDS_P2;PMS_P1;PMS_P2;Temp;Humidity;BMP_temperature;BMP_pressure;BME280_temperature;BME280_humidity;BME280_pressure;Samples;Min_cycle;Max_cycle;Signal;HPM_P1;HPM_P2
2023/12/03 00:00:28;;;;;;;20.60;12.20;;;-2.00;99.90;;;;;;5010568;28;20542;-83
2023/12/03 00:02:54;;;;;;;24.30;13.77;;;-2.10;99.90;;;;;;5011642;28;20434;-83
2023/12/03 00:05:23;;;;;;;18.88;11.73;;;-2.10;99.90;;;;;;5012867;28;20033;-84
2023/12/03 00:07:49;;;;;;;21.90;12.55;;;-2.10;99.90;;;;;;5009764;28;20021;-83
2023/12/03 00:10:14;;;;;;;21.67;12.38;;;-2.10;99.90;;;;;;5029806;28;20385;-84
2023/12/03 00:12:40;;;;;;;27.58;12.73;;;-2.10;99.90;;;;;;5013053;28;20037;-83
2023/12/03 00:15:06;;;;;;;18.65;12.32;;;-2.10;99.90;;;;;;5010195;28;20065;-83
2023/12/03 00:17:32;;;;;;;23.65;12.63;;;-2.20;99.90;;;;;;5012163;28;20036;-84
2023/12/03 00:19:58;;;;;;;22.73;12.68;;;-2.20;99.90;;;;;;5007958;28;20088;-84
2023/12/03 00:22:23;;;;;;;22.75;12.07;;;-2.20;99.90;;;;;;5011288;28;20502;-83
2023/12/03 00:24:49;;;;;;;24.20;12.77;;;-2.20;99.90;;;;;;5012107;28;20402;-83
2023/12/03 00:27:14;;;;;;;21.80;12.15;;;-2.10;99.90;;;;;;5005977;28;20063;-83
2023/12/03 00:29:40;;;;;;;25.63;12.70;;;-2.10;99.90;;;;;;5012070;28;20091;-83
2023/12/03 00:32:06;;;;;;;21.80;12.32;;;-2.10;99.90;;;;;;5010090;28;20036;-83
2023/12/03 00:34:31;;;;;;;22.63;11.35;;;-2.20;99.90;;;;;;5029868;28;20032;-83
2023/12/03 00:36:57;;;;;;;18.23;12.10;;;-2.10;99.90;;;;;;5012442;28;20032;-84
2023/12/03 00:39:22;;;;;;;19.80;12.27;;;-2.10;99.90;;;;;;5011150;28;20060;-84
2023/12/03 00:41:48;;;;;;;21.40;11.65;;;-2.10;99.90;;;;;;5028036;28;20065;-83
2023/12/03 00:44:13;;;;;;;21.65;11.38;;;-2.10;99.90;;;;;;5008190;28;20029;-83
2023/12/03 00:46:39;;;;;;;20.92;11.45;;;-2.20;99.90;;;;;;5027890;28;20084;-83
2023/12/03 00:49:04;;;;;;;21.83;12.18;;;-2.20;99.90;;;;;;5010656;28;20017;-82
2023/12/03 00:51:30;;;;;;;22.00;11.35;;;-2.20;99.90;;;;;;5014022;28;20421;-84
2023/12/03 00:53:56;;;;;;;20.13;12.20;;;-2.20;99.90;;;;;;5010278;28;20054;-84
2023/12/03 00:56:21;;;;;;;18.10;10.35;;;-2.20;99.90;;;;;;5009855;28;20452;-82
2023/12/03 00:58:47;;;;;;;19.17;11.32;;;-2.10;99.90;;;;;;5011876;28;20030;-84
2023/12/03 01:01:12;;;;;;;20.23;10.15;;;-2.10;99.90;;;;;;5010496;28;20061;-84
2023/12/03 01:03:38;;;;;;;17.95;10.98;;;-2.10;99.90;;;;;;5011440;28;20056;-83
2023/12/03 01:06:03;;;;;;;22.83;13.13;;;-2.10;99.90;;;;;;5014144;28;20030;-83
2023/12/03 01:08:29;;;;;;;23.48;12.82;;;-2.10;99.90;;;;;;5008226;28;20029;-83
2023/12/03 01:10:54;;;;;;;23.27;12.32;;;-2.10;99.90;;;;;;5011516;28;20025;-85
2023/12/03 01:13:20;;;;;;;24.23;13.45;;;-2.10;99.90;;;;;;5009342;28;20030;-84
2023/12/03 01:15:47;;;;;;;19.63;13.18;;;-2.10;99.90;;;;;;5005753;28;20030;-82
2023/12/03 01:18:13;;;;;;;21.10;12.35;;;-2.10;99.90;;;;;;5010338;28;20612;-84
2023/12/03 01:20:39;;;;;;;22.40;12.50;;;-2.10;99.90;;;;;;5010868;28;20116;-83
2023/12/03 01:23:04;;;;;;;25.15;13.07;;;-2.10;99.90;;;;;;5011124;28;20108;-82
2023/12/03 01:25:30;;;;;;;19.33;12.02;;;-2.10;99.90;;;;;;5010729;28;20036;-83
2023/12/03 01:27:56;;;;;;;24.52;12.38;;;-2.10;99.90;;;;;;5008865;28;20029;-83
2023/12/03 01:30:22;;;;;;;21.52;11.43;;;-2.10;99.90;;;;;;5002982;28;20401;-83
2023/12/03 01:32:47;;;;;;;22.20;11.75;;;-2.10;99.90;;;;;;5008229;28;20036;-83
2023/12/03 01:35:13;;;;;;;21.90;13.07;;;-2.10;99.90;;;;;;5007677;28;20029;-83
2023/12/03 01:37:38;;;;;;;20.70;11.88;;;-2.10;99.90;;;;;;5006577;28;20025;-83
2023/12/03 01:40:05;;;;;;;25.02;12.50;;;-2.10;99.90;;;;;;5008466;28;20092;-83
2023/12/03 01:42:31;;;;;;;20.30;11.90;;;-2.10;99.90;;;;;;5007705;28;20100;-84
2023/12/03 01:44:57;;;;;;;20.98;12.25;;;-2.10;99.90;;;;;;5027575;28;20080;-83
2023/12/03 01:47:23;;;;;;;20.85;11.75;;;-2.10;99.90;;;;;;5009785;28;20026;-83
2023/12/03 01:49:49;;;;;;;23.35;11.02;;;-2.10;99.90;;;;;;5007504;28;20104;-83
2023/12/03 01:52:15;;;;;;;23.05;13.40;;;-2.10;99.90;;;;;;5024711;28;20405;-84
2023/12/03 01:54:43;;;;;;;20.58;11.48;;;-2.10;99.90;;;;;;5007961;28;20037;-86
2023/12/03 01:57:09;;;;;;;20.50;11.73;;;-2.00;99.90;;;;;;5033534;28;20099;-84
2023/12/03 01:59:35;;;;;;;20.52;11.82;;;-2.00;99.90;;;;;;5018078;28;20087;-83
2023/12/03 02:02:04;;;;;;;22.40;13.35;;;-2.10;99.90;;;;;;5010051;28;20030;-83
2023/12/03 02:04:30;;;;;;;29.05;13.20;;;-2.10;99.90;;;;;;5009708;28;20038;-82
2023/12/03 02:06:56;;;;;;;24.33;12.95;;;-2.00;99.90;;;;;;5012050;28;20171;-83
2023/12/03 02:09:21;;;;;;;20.95;13.05;;;-2.00;99.90;;;;;;5012824;28;20030;-83
2023/12/03 02:11:47;;;;;;;23.30;12.68;;;-2.10;99.90;;;;;;5010868;28;20026;-83
2023/12/03 02:14:13;;;;;;;20.40;12.45;;;-2.10;99.90;;;;;;5010451;28;20151;-84
2023/12/03 02:16:47;;;;;;;24.63;13.10;;;-2.10;99.90;;;;;;5028451;28;20037;-83
2023/12/03 02:19:16;;;;;;;21.00;11.93;;;-2.10;99.90;;;;;;5014892;28;20033;-84
2023/12/03 02:21:42;;;;;;;22.33;12.98;;;-2.10;99.90;;;;;;5019581;28;20120;-84
2023/12/03 02:24:08;;;;;;;22.83;11.93;;;-2.10;99.90;;;;;;5032459;28;20068;-85
2023/12/03 02:26:33;;;;;;;20.10;12.75;;;-2.10;99.90;;;;;;5021821;28;20037;-83
2023/12/03 02:28:59;;;;;;;24.58;12.48;;;-2.10;99.90;;;;;;5019041;28;20034;-84
2023/12/03 02:31:26;;;;;;;27.15;14.30;;;-2.10;99.90;;;;;;5033675;28;20060;-86
2023/12/03 02:34:02;;;;;;;22.98;13.15;;;-2.10;99.90;;;;;;5024773;28;20029;-83
2023/12/03 02:36:28;;;;;;;25.10;13.93;;;-2.10;99.90;;;;;;5007799;28;20039;-83
2023/12/03 02:38:54;;;;;;;24.95;13.73;;;-2.10;99.90;;;;;;5013812;28;20038;-83
2023/12/03 02:41:20;;;;;;;29.30;14.38;;;-2.10;99.90;;;;;;5012055;28;20038;-83
2023/12/03 02:43:45;;;;;;;24.38;13.20;;;-2.10;99.90;;;;;;5028128;28;20044;-83
2023/12/03 02:46:11;;;;;;;26.73;14.60;;;-2.10;99.90;;;;;;5014117;28;20051;-84
2023/12/03 02:48:36;;;;;;;24.80;11.82;;;-2.10;99.90;;;;;;5012562;28;20563;-83
2023/12/03 02:51:02;;;;;;;24.15;13.50;;;-2.10;99.90;;;;;;5009328;28;20076;-83
2023/12/03 02:53:27;;;;;;;21.90;13.10;;;-2.10;99.90;;;;;;5010233;28;20038;-83
2023/12/03 02:55:53;;;;;;;23.88;13.57;;;-2.10;99.90;;;;;;5008738;28;20025;-83
2023/12/03 02:58:18;;;;;;;19.77;11.82;;;-2.00;99.90;;;;;;5009488;28;20026;-83
2023/12/03 03:00:44;;;;;;;20.00;10.55;;;-2.10;99.90;;;;;;5015673;28;20382;-83
2023/12/03 03:03:09;;;;;;;18.50;11.18;;;-2.00;99.90;;;;;;5026805;28;20068;-83
2023/12/03 03:05:35;;;;;;;18.67;10.25;;;-2.00;99.90;;;;;;5008613;28;20410;-82
2023/12/03 03:08:00;;;;;;;23.90;11.88;;;-2.10;99.90;;;;;;5033976;28;20043;-83
2023/12/03 03:10:26;;;;;;;17.45;9.70;;;-2.10;99.90;;;;;;5015222;28;20493;-84
2023/12/03 03:12:51;;;;;;;20.83;11.38;;;-2.10;99.90;;;;;;5016725;28;20104;-83
2023/12/03 03:15:17;;;;;;;19.27;11.18;;;-2.00;99.90;;;;;;5026769;28;20063;-83
2023/12/03 03:17:42;;;;;;;18.02;10.95;;;-2.00;99.90;;;;;;5011907;28;20112;-83
2023/12/03 03:20:08;;;;;;;18.92;11.27;;;-2.10;99.90;;;;;;5014534;28;20112;-83
2023/12/03 03:22:34;;;;;;;18.95;11.82;;;-2.00;99.90;;;;;;5011227;28;20057;-83
2023/12/03 03:25:00;;;;;;;18.73;10.93;;;-2.00;99.90;;;;;;5013995;28;20038;-83
2023/12/03 03:27:25;;;;;;;23.48;11.88;;;-2.00;99.90;;;;;;5012990;28;20058;-83
2023/12/03 03:29:51;;;;;;;20.95;11.57;;;-2.00;99.90;;;;;;5011490;28;20026;-83
2023/12/03 03:32:16;;;;;;;19.98;11.85;;;-2.00;99.90;;;;;;5007391;28;20417;-83
2023/12/03 03:34:42;;;;;;;22.33;11.48;;;-2.00;99.90;;;;;;5009720;28;20025;-83
2023/12/03 03:37:07;;;;;;;21.52;11.50;;;-2.00;99.90;;;;;;5025031;28;20033;-83
2023/12/03 03:39:33;;;;;;;22.33;12.25;;;-2.00;99.90;;;;;;5012439;28;20038;-83
2023/12/03 03:41:58;;;;;;;24.42;12.25;;;-2.00;99.90;;;;;;5016633;28;20053;-83
2023/12/03 03:44:24;;;;;;;26.45;13.45;;;-2.00;99.90;;;;;;5009321;28;20037;-83
2023/12/03 03:46:49;;;;;;;22.48;12.18;;;-2.00;99.90;;;;;;5005619;28;20030;-83
2023/12/03 03:49:15;;;;;;;20.40;11.07;;;-2.00;99.90;;;;;;5013223;28;20049;-83
2023/12/03 03:51:41;;;;;;;22.05;11.65;;;-2.00;99.90;;;;;;5029485;28;20132;-82
2023/12/03 03:54:06;;;;;;;23.42;13.52;;;-2.10;99.90;;;;;;5008716;28;20039;-85
2023/12/03 03:56:32;;;;;;;21.90;12.73;;;-2.00;99.90;;;;;;5008988;28;20426;-84
2023/12/03 03:58:57;;;;;;;22.90;13.15;;;-2.00;99.90;;;;;;5012509;28;20083;-83
2023/12/03 04:01:23;;;;;;;20.80;11.80;;;-2.00;99.90;;;;;;5007963;28;20033;-83
2023/12/03 04:03:48;;;;;;;23.55;11.85;;;-2.00;99.90;;;;;;5013699;28;20079;-84
2023/12/03 04:06:14;;;;;;;24.15;13.18;;;-2.00;99.90;;;;;;5012121;28;20037;-83
2023/12/03 04:08:39;;;;;;;22.63;12.10;;;-2.00;99.90;;;;;;5012715;28;20116;-83
2023/12/03 04:11:07;;;;;;;20.85;12.57;;;-2.00;99.90;;;;;;4995209;28;20137;-83
2023/12/03 04:13:32;;;;;;;18.77;11.07;;;-2.00;99.90;;;;;;5008433;28;20065;-83
2023/12/03 04:15:58;;;;;;;26.70;12.52;;;-2.00;99.90;;;;;;5008938;28;20026;-83
2023/12/03 04:18:24;;;;;;;28.77;13.07;;;-2.00;99.90;;;;;;5011194;28;20557;-83
2023/12/03 04:20:50;;;;;;;26.88;13.00;;;-2.00;99.90;;;;;;5012461;28;20056;-83
2023/12/03 04:23:15;;;;;;;24.55;12.98;;;-2.00;99.90;;;;;;5010746;28;20025;-84
2023/12/03 04:25:41;;;;;;;22.13;10.63;;;-2.00;99.90;;;;;;5009436;28;20040;-83
2023/12/03 04:28:07;;;;;;;18.63;9.95;;;-2.00;99.90;;;;;;5013673;28;20025;-83
2023/12/03 04:30:32;;;;;;;23.45;11.15;;;-2.10;99.90;;;;;;5009638;28;20112;-83
2023/12/03 04:32:58;;;;;;;18.48;9.60;;;-2.20;99.90;;;;;;5008694;28;20036;-86
2023/12/03 04:35:23;;;;;;;22.92;10.27;;;-2.20;99.90;;;;;;5018906;28;20032;-83
2023/12/03 04:37:49;;;;;;;19.17;11.40;;;-2.20;99.90;;;;;;5011491;28;20033;-84
2023/12/03 04:40:15;;;;;;;19.17;11.23;;;-2.30;99.90;;;;;;5011123;28;20017;-84
2023/12/03 04:42:41;;;;;;;19.65;10.63;;;-2.20;99.90;;;;;;5011417;28;20087;-83
2023/12/03 04:45:07;;;;;;;23.35;12.20;;;-2.30;99.90;;;;;;5006530;28;20017;-83
2023/12/03 04:47:33;;;;;;;20.45;11.63;;;-2.20;99.90;;;;;;5007680;28;20040;-84
2023/12/03 04:49:58;;;;;;;22.55;13.25;;;-2.20;99.90;;;;;;5006284;28;20029;-84
2023/12/03 04:52:24;;;;;;;19.73;10.77;;;-2.20;99.90;;;;;;5006574;28;20144;-83
2023/12/03 04:54:49;;;;;;;19.73;10.32;;;-2.20;99.90;;;;;;5008583;28;20065;-83
2023/12/03 04:57:15;;;;;;;21.52;11.63;;;-2.30;99.90;;;;;;5010357;28;20033;-85
2023/12/03 04:59:41;;;;;;;23.73;11.50;;;-2.30;99.90;;;;;;5010451;28;20040;-83
2023/12/03 05:02:06;;;;;;;17.98;10.23;;;-2.30;99.90;;;;;;5006470;28;20013;-83
2023/12/03 05:04:32;;;;;;;24.60;11.82;;;-2.20;99.90;;;;;;5008023;28;20417;-83
2023/12/03 05:06:57;;;;;;;23.52;11.77;;;-2.20;99.90;;;;;;5007435;28;20033;-83
2023/12/03 05:09:23;;;;;;;21.17;12.27;;;-2.20;99.90;;;;;;5009759;28;20067;-83
2023/12/03 05:11:49;;;;;;;22.10;12.30;;;-2.20;99.90;;;;;;5006018;28;20022;-83
2023/12/03 05:14:15;;;;;;;23.25;12.00;;;-2.30;99.90;;;;;;5008996;28;20044;-84
2023/12/03 05:16:40;;;;;;;22.05;11.95;;;-2.30;99.90;;;;;;5021793;28;20494;-83
2023/12/03 05:19:06;;;;;;;26.35;13.38;;;-2.20;99.90;;;;;;5005042;28;20025;-84
2023/12/03 05:21:31;;;;;;;21.90;11.50;;;-2.20;99.90;;;;;;5010095;28;20029;-83
2023/12/03 05:23:58;;;;;;;21.50;10.60;;;-2.30;99.90;;;;;;5008496;28;20466;-84
2023/12/03 05:26:24;;;;;;;20.83;11.93;;;-2.30;99.90;;;;;;5009076;28;20026;-83
2023/12/03 05:28:49;;;;;;;19.08;10.57;;;-2.30;99.90;;;;;;5009442;28;20061;-83
2023/12/03 05:31:15;;;;;;;22.90;11.30;;;-2.30;99.90;;;;;;5009541;28;20060;-84
2023/12/03 05:33:41;;;;;;;21.45;12.70;;;-2.30;99.90;;;;;;5004581;28;20044;-84
2023/12/03 05:36:08;;;;;;;22.60;11.63;;;-2.20;99.90;;;;;;5009255;28;20389;-83
2023/12/03 05:38:33;;;;;;;21.45;11.80;;;-2.20;99.90;;;;;;5007157;28;20116;-84
2023/12/03 05:40:59;;;;;;;20.13;11.63;;;-2.20;99.90;;;;;;5005778;28;20061;-84
2023/12/03 05:43:25;;;;;;;19.83;12.25;;;-2.20;99.90;;;;;;5007709;28;20022;-84
2023/12/03 05:45:50;;;;;;;20.48;11.73;;;-2.20;99.90;;;;;;5004436;28;20029;-83
2023/12/03 05:48:16;;;;;;;26.05;12.45;;;-2.20;99.90;;;;;;5011412;28;20034;-83
2023/12/03 05:50:42;;;;;;;20.98;12.18;;;-2.20;99.90;;;;;;5007006;28;20536;-83
2023/12/03 05:53:07;;;;;;;27.95;12.52;;;-2.20;99.90;;;;;;5003456;28;20381;-83
2023/12/03 05:55:33;;;;;;;21.80;12.02;;;-2.20;99.90;;;;;;5008622;28;20041;-83
2023/12/03 05:57:58;;;;;;;27.75;13.35;;;-2.20;99.90;;;;;;5005193;28;20033;-83
2023/12/03 06:00:24;;;;;;;19.33;11.48;;;-2.20;99.90;;;;;;5005011;28;20040;-84
2023/12/03 06:02:50;;;;;;;22.95;12.15;;;-2.20;99.90;;;;;;5008384;28;20029;-85
2023/12/03 06:05:15;;;;;;;21.58;10.88;;;-2.30;99.90;;;;;;5005438;28;20613;-84
2023/12/03 06:07:41;;;;;;;19.40;10.70;;;-2.30;99.90;;;;;;5011119;28;20409;-84
2023/12/03 06:10:07;;;;;;;24.40;11.38;;;-2.30;99.90;;;;;;5007654;28;20029;-83
2023/12/03 06:12:33;;;;;;;21.10;11.93;;;-2.30;99.90;;;;;;5009543;28;20105;-84
2023/12/03 06:14:59;;;;;;;20.58;13.15;;;-2.40;99.90;;;;;;5009400;28;20061;-85
2023/12/03 06:17:28;;;;;;;23.67;12.65;;;-2.40;99.90;;;;;;5008036;28;20124;-84
2023/12/03 06:19:53;;;;;;;22.88;12.00;;;-2.40;99.90;;;;;;5013133;28;20036;-83
2023/12/03 06:22:19;;;;;;;20.23;11.45;;;-2.40;99.90;;;;;;5009651;28;20029;-83
2023/12/03 06:24:44;;;;;;;23.73;12.77;;;-2.40;99.90;;;;;;5009322;28;20026;-85
2023/12/03 06:27:10;;;;;;;21.35;11.45;;;-2.40;99.90;;;;;;5006255;28;20083;-84
2023/12/03 06:29:35;;;;;;;22.08;11.63;;;-2.30;99.90;;;;;;5007767;28;20033;-83
2023/12/03 06:32:01;;;;;;;20.92;11.98;;;-2.30;99.90;;;;;;5023948;28;20032;-83
2023/12/03 06:34:27;;;;;;;23.73;11.50;;;-2.30;99.90;;;;;;5021121;28;20482;-83
2023/12/03 06:36:53;;;;;;;18.05;10.68;;;-2.30;99.90;;;;;;5007327;28;20044;-83
2023/12/03 06:39:18;;;;;;;23.02;11.20;;;-2.30;99.90;;;;;;5008363;28;20132;-83
2023/12/03 06:41:44;;;;;;;20.83;10.98;;;-2.40;99.90;;;;;;5009868;28;20112;-83
2023/12/03 06:44:09;;;;;;;20.40;11.10;;;-2.40;99.90;;;;;;5010133;28;20060;-85
2023/12/03 06:46:41;;;;;;;27.42;12.15;;;-2.40;99.90;;;;;;5012344;28;20517;-84
2023/12/03 06:49:07;;;;;;;26.88;12.18;;;-2.30;99.90;;;;;;5013282;28;20038;-84
2023/12/03 06:51:33;;;;;;;21.58;11.52;;;-2.40;99.90;;;;;;5010710;28;20037;-83
2023/12/03 06:54:00;;;;;;;20.95;11.77;;;-2.30;99.90;;;;;;5009381;28;20026;-83
2023/12/03 06:56:26;;;;;;;24.60;11.48;;;-2.40;99.90;;;;;;5012594;28;20121;-83
2023/12/03 06:58:51;;;;;;;26.90;12.10;;;-2.40;99.90;;;;;;5013063;28;20076;-84
2023/12/03 07:01:17;;;;;;;26.02;12.32;;;-2.30;99.90;;;;;;5010159;28;20289;-83
2023/12/03 07:03:42;;;;;;;24.58;12.68;;;-2.30;99.90;;;;;;5013361;28;20022;-84
2023/12/03 07:06:08;;;;;;;24.00;12.73;;;-2.40;99.90;;;;;;5008385;28;20060;-83
2023/12/03 07:08:34;;;;;;;26.20;13.55;;;-2.30;99.90;;;;;;5010232;28;20060;-84
2023/12/03 07:11:00;;;;;;;21.17;10.73;;;-2.40;99.90;;;;;;5013068;28;20052;-83
2023/12/03 07:13:26;;;;;;;22.05;11.52;;;-2.40;99.90;;;;;;5012755;28;20034;-84
2023/12/03 07:15:51;;;;;;;21.35;11.63;;;-2.40;99.90;;;;;;5011430;28;20056;-84
2023/12/03 07:18:17;;;;;;;25.52;12.88;;;-2.30;99.90;;;;;;5010701;28;20026;-84
2023/12/03 07:20:42;;;;;;;22.25;10.27;;;-2.30;99.90;;;;;;5010389;28;20033;-83
2023/12/03 07:23:08;;;;;;;19.92;10.80;;;-2.30;99.90;;;;;;5012979;28;20032;-83
2023/12/03 07:25:33;;;;;;;20.70;10.05;;;-2.30;99.90;;;;;;5028718;28;20127;-83
2023/12/03 07:27:59;;;;;;;22.83;11.00;;;-2.30;99.90;;;;;;5009391;28;20041;-83
2023/12/03 07:30:25;;;;;;;19.13;10.55;;;-2.30;99.90;;;;;;5010461;28;20032;-84
2023/12/03 07:32:51;;;;;;;17.63;10.77;;;-2.30;99.90;;;;;;5011083;28;20026;-84
2023/12/03 07:35:17;;;;;;;18.95;10.23;;;-2.30;99.90;;;;;;5013616;28;20061;-83
2023/12/03 07:37:42;;;;;;;20.42;10.27;;;-2.30;99.90;;;;;;5010033;28;20034;-84
2023/12/03 07:40:09;;;;;;;20.58;11.18;;;-2.30;99.90;;;;;;5008638;28;20026;-85
2023/12/03 07:42:34;;;;;;;23.27;11.45;;;-2.30;99.90;;;;;;5014535;28;20040;-86
2023/12/03 07:45:00;;;;;;;19.58;10.77;;;-2.30;99.90;;;;;;5009195;28;20116;-85
2023/12/03 07:47:26;;;;;;;23.73;11.75;;;-2.30;99.90;;;;;;5025752;28;20018;-85
2023/12/03 07:49:51;;;;;;;18.48;9.68;;;-2.30;99.90;;;;;;5009381;28;20526;-87
2023/12/03 07:52:19;;;;;;;20.42;10.63;;;-2.30;99.90;;;;;;5010952;28;20082;-85
2023/12/03 07:54:46;;;;;;;23.90;10.25;;;-2.30;99.90;;;;;;5011976;28;20021;-85
2023/12/03 07:57:12;;;;;;;20.30;10.90;;;-2.30;99.90;;;;;;5013697;28;20048;-85
2023/12/03 07:59:38;;;;;;;19.33;11.13;;;-2.30;99.90;;;;;;5013879;28;20041;-85
2023/12/03 08:02:03;;;;;;;21.23;11.57;;;-2.30;99.90;;;;;;5011328;28;20033;-87
2023/12/03 08:04:29;;;;;;;19.27;11.40;;;-2.30;99.90;;;;;;5013010;28;20056;-85
2023/12/03 08:06:55;;;;;;;31.20;13.13;;;-2.30;99.90;;;;;;5012974;28;20478;-86
2023/12/03 08:09:20;;;;;;;23.83;12.68;;;-2.30;99.90;;;;;;5014424;28;20036;-85
2023/12/03 08:11:46;;;;;;;19.88;10.95;;;-2.20;99.90;;;;;;5010359;28;20027;-85
2023/12/03 08:14:11;;;;;;;21.42;12.15;;;-2.20;99.90;;;;;;5014050;28;20374;-85
2023/12/03 08:16:37;;;;;;;22.88;10.98;;;-2.30;99.90;;;;;;5010559;28;20051;-85
2023/12/03 08:19:02;;;;;;;22.73;11.57;;;-2.30;99.90;;;;;;5017406;28;20066;-85
2023/12/03 08:21:30;;;;;;;26.65;13.60;;;-2.30;99.90;;;;;;5018315;28;20032;-86
2023/12/03 08:23:58;;;;;;;23.00;13.48;;;-2.30;99.90;;;;;;5010925;28;20092;-86
2023/12/03 08:26:24;;;;;;;36.72;13.55;;;-2.30;99.90;;;;;;5011179;28;20091;-86
2023/12/03 08:28:49;;;;;;;30.35;16.65;;;-2.30;99.90;;;;;;5011309;28;20786;-85
2023/12/03 08:31:15;;;;;;;51.95;25.50;;;-2.30;99.90;;;;;;5010197;28;20719;-85
2023/12/03 08:33:41;;;;;;;26.25;14.23;;;-2.30;99.90;;;;;;5010883;28;20373;-85
2023/12/03 08:36:07;;;;;;;31.45;18.20;;;-2.30;99.90;;;;;;5008136;28;20053;-86
2023/12/03 08:38:32;;;;;;;29.90;16.13;;;-2.30;99.90;;;;;;5007745;28;20025;-85
2023/12/03 08:40:58;;;;;;;25.27;13.50;;;-2.30;99.90;;;;;;5006898;28;20052;-85
2023/12/03 08:43:24;;;;;;;23.23;11.18;;;-2.30;99.90;;;;;;5010386;28;20551;-85
2023/12/03 08:45:49;;;;;;;20.55;11.93;;;-2.30;99.90;;;;;;5011265;28;20078;-85
2023/12/03 08:48:15;;;;;;;22.05;11.93;;;-2.30;99.90;;;;;;5007276;28;20025;-85
2023/12/03 08:50:40;;;;;;;23.60;11.32;;;-2.30;99.90;;;;;;5006092;28;20036;-85
2023/12/03 08:53:06;;;;;;;23.10;13.02;;;-2.30;99.90;;;;;;5009121;28;20453;-86
2023/12/03 08:55:31;;;;;;;21.83;12.48;;;-2.30;99.90;;;;;;5008304;28;20154;-85
2023/12/03 08:57:57;;;;;;;23.48;12.65;;;-2.30;99.90;;;;;;5006945;28;20672;-84
2023/12/03 09:00:23;;;;;;;23.20;11.45;;;-2.20;99.90;;;;;;5020975;28;20406;-85
2023/12/03 09:02:48;;;;;;;24.17;13.60;;;-2.20;99.90;;;;;;5010460;28;20300;-86
2023/12/03 09:05:14;;;;;;;23.70;13.13;;;-2.10;99.90;;;;;;5011034;28;20025;-85
2023/12/03 09:07:39;;;;;;;24.17;12.20;;;-2.10;99.90;;;;;;5011429;28;20040;-85
2023/12/03 09:10:06;;;;;;;16.92;10.80;;;-2.10;99.90;;;;;;5007234;28;20405;-85
2023/12/03 09:12:32;;;;;;;16.70;9.57;;;-2.10;99.90;;;;;;5011747;28;20140;-85
2023/12/03 09:14:58;;;;;;;15.52;8.95;;;-2.10;99.90;;;;;;5006311;28;20116;-85
2023/12/03 09:17:23;;;;;;;15.48;9.02;;;-2.20;99.90;;;;;;5008661;28;20034;-85
2023/12/03 09:19:49;;;;;;;19.77;9.68;;;-2.20;99.90;;;;;;5023362;28;20038;-85
2023/12/03 09:22:15;;;;;;;17.02;8.95;;;-2.20;99.90;;;;;;5024092;28;20044;-85
2023/12/03 09:24:41;;;;;;;17.83;8.55;;;-2.20;99.90;;;;;;5006130;28;20154;-86
2023/12/03 09:27:07;;;;;;;16.30;8.55;;;-2.20;99.90;;;;;;5000809;28;20041;-85
2023/12/03 09:29:33;;;;;;;14.68;9.77;;;-2.10;99.90;;;;;;5004447;28;20069;-85
2023/12/03 09:31:58;;;;;;;18.13;10.25;;;-2.10;99.90;;;;;;5004274;28;20072;-85
2023/12/03 09:34:24;;;;;;;18.48;9.77;;;-2.00;99.90;;;;;;5006543;28;20041;-86
2023/12/03 09:36:49;;;;;;;13.57;8.55;;;-2.00;99.90;;;;;;5017926;28;20730;-84
2023/12/03 09:39:15;;;;;;;14.70;9.63;;;-2.00;99.90;;;;;;5002149;28;20064;-85
2023/12/03 09:41:51;;;;;;;15.73;9.68;;;-1.90;99.90;;;;;;5003763;28;20056;-85
2023/12/03 09:44:16;;;;;;;16.00;9.32;;;-1.90;99.90;;;;;;4996429;28;20121;-84
2023/12/03 09:46:44;;;;;;;14.38;8.68;;;-1.90;99.90;;;;;;5004844;28;20113;-86
2023/12/03 09:49:11;;;;;;;15.13;8.77;;;-2.00;99.90;;;;;;5002098;28;20108;-87
2023/12/03 09:51:40;;;;;;;15.23;9.13;;;-2.00;99.90;;;;;;5002369;28;20101;-85
2023/12/03 09:54:11;;;;;;;16.30;10.40;;;-2.00;99.90;;;;;;5005524;28;20120;-88
2023/12/03 09:56:40;;;;;;;14.27;9.20;;;-2.00;99.90;;;;;;5005049;28;20490;-86
2023/12/03 09:59:08;;;;;;;14.90;9.20;;;-1.90;99.90;;;;;;5001909;28;20041;-85
2023/12/03 10:01:37;;;;;;;19.23;10.98;;;-2.00;99.90;;;;;;5005079;28;20029;-85
2023/12/03 10:04:03;;;;;;;13.52;7.90;;;-2.00;99.90;;;;;;5006096;28;20025;-85
2023/12/03 10:06:32;;;;;;;14.38;8.68;;;-2.00;99.90;;;;;;5000329;28;20109;-85
2023/12/03 10:08:59;;;;;;;16.98;9.30;;;-2.00;99.90;;;;;;5003127;28;20013;-84
2023/12/03 10:11:27;;;;;;;14.43;9.57;;;-2.00;99.90;;;;;;5005724;28;20485;-84
2023/12/03 10:13:56;;;;;;;22.08;12.23;;;-2.00;99.90;;;;;;5002775;28;20655;-84
2023/12/03 10:16:22;;;;;;;20.45;11.60;;;-2.00;99.90;;;;;;5009535;28;20024;-85
2023/12/03 10:18:49;;;;;;;18.30;12.32;;;-2.00;99.90;;;;;;5006401;28;20025;-84
2023/12/03 10:21:15;;;;;;;19.73;11.75;;;-2.00;99.90;;;;;;5011728;28;20026;-85
2023/12/03 10:23:41;;;;;;;17.10;10.73;;;-1.90;99.90;;;;;;5031556;28;21284;-85
2023/12/03 10:26:13;;;;;;;15.45;9.75;;;-1.90;99.90;;;;;;5014069;28;20354;-85
2023/12/03 10:28:40;;;;;;;14.65;8.85;;;-1.90;99.90;;;;;;5011751;28;20027;-85
2023/12/03 10:31:15;;;;;;;17.58;9.80;;;-2.00;99.90;;;;;;5014667;28;20079;-85
2023/12/03 10:33:45;;;;;;;15.18;8.00;;;-1.90;99.90;;;;;;5028498;28;20032;-85
2023/12/03 10:36:11;;;;;;;22.23;10.52;;;-1.90;99.90;;;;;;5010145;28;20034;-85
2023/12/03 10:38:38;;;;;;;19.38;9.63;;;-1.90;99.90;;;;;;5011866;28;20399;-85
2023/12/03 10:41:09;;;;;;;21.25;10.38;;;-1.90;99.90;;;;;;5027873;28;20113;-85
2023/12/03 10:43:36;;;;;;;16.45;9.98;;;-1.90;99.90;;;;;;5011552;28;20423;-86
2023/12/03 10:46:08;;;;;;;16.52;11.05;;;-1.80;99.90;;;;;;5010500;28;20032;-85
2023/12/03 10:48:35;;;;;;;20.35;10.57;;;-1.80;99.90;;;;;;5026572;28;20025;-85
2023/12/03 10:51:04;;;;;;;17.92;10.57;;;-1.80;99.90;;;;;;5013170;28;20076;-85
2023/12/03 10:53:34;;;;;;;25.27;11.48;;;-1.80;99.90;;;;;;5015381;28;20037;-84
2023/12/03 10:56:05;;;;;;;20.65;10.95;;;-1.80;99.90;;;;;;5015914;28;20048;-85
2023/12/03 10:58:35;;;;;;;18.27;10.32;;;-1.80;99.90;;;;;;5014378;28;20057;-85
2023/12/03 11:01:18;;;;;;;17.25;10.13;;;-1.80;99.90;;;;;;5015973;28;20087;-85
2023/12/03 11:04:03;;;;;;;22.27;12.32;;;-1.80;99.90;;;;;;5011311;28;20033;-85
2023/12/03 11:06:32;;;;;;;21.52;11.77;;;-1.80;99.90;;;;;;5027795;28;20040;-85
2023/12/03 11:08:58;;;;;;;26.08;13.32;;;-1.70;99.90;;;;;;5026753;28;20066;-85
2023/12/03 11:11:24;;;;;;;22.95;12.73;;;-1.70;99.90;;;;;;5013152;28;20030;-87
2023/12/03 11:13:52;;;;;;;25.95;13.57;;;-1.70;99.90;;;;;;5009753;28;20036;-85
2023/12/03 11:16:18;;;;;;;24.50;11.80;;;-1.70;99.90;;;;;;5012923;28;20083;-84
2023/12/03 11:19:09;;;;;;;22.20;13.23;;;-1.70;99.90;;;;;;5008101;28;20036;-85
2023/12/03 11:21:37;;;;;;;24.60;15.43;;;-1.60;99.90;;;;;;5010252;28;20114;-84
2023/12/03 11:24:46;;;;;;;28.23;17.45;;;-1.60;99.90;;;;;;5013236;28;20057;-84
2023/12/03 11:27:12;;;;;;;23.65;12.90;;;-1.60;99.90;;;;;;5008591;28;20089;-85
2023/12/03 11:29:55;;;;;;;25.70;13.98;;;-1.60;99.90;;;;;;5011520;28;20022;-85
2023/12/03 11:32:23;;;;;;;22.00;12.52;;;-1.60;99.90;;;;;;5014493;28;20024;-85
2023/12/03 11:34:58;;;;;;;22.98;12.38;;;-1.60;99.90;;;;;;5011598;28;20033;-86
2023/12/03 11:37:26;;;;;;;30.60;14.90;;;-1.60;99.90;;;;;;5013638;28;20025;-85
2023/12/03 11:39:54;;;;;;;23.67;12.50;;;-1.60;99.90;;;;;;5011620;28;20033;-85
2023/12/03 11:42:23;;;;;;;27.38;13.55;;;-1.60;99.90;;;;;;5005787;28;20074;-86
2023/12/03 11:44:49;;;;;;;26.83;14.07;;;-1.60;99.90;;;;;;5012080;28;20052;-85
2023/12/03 11:47:15;;;;;;;23.48;13.05;;;-1.60;99.90;;;;;;5010725;28;20017;-85
2023/12/03 11:49:41;;;;;;;20.70;13.35;;;-1.60;99.90;;;;;;5013148;28;20026;-85
2023/12/03 11:52:07;;;;;;;22.55;12.48;;;-1.60;99.90;;;;;;5009847;28;20022;-84
2023/12/03 11:54:43;;;;;;;22.33;12.75;;;-1.60;99.90;;;;;;5015218;28;20064;-85
2023/12/03 11:57:15;;;;;;;21.80;13.20;;;-1.60;99.90;;;;;;5029310;28;20018;-85
2023/12/03 11:59:43;;;;;;;23.02;13.80;;;-1.60;99.90;;;;;;5012202;28;20034;-85
2023/12/03 12:02:08;;;;;;;27.08;13.80;;;-1.50;99.90;;;;;;5011081;28;20030;-85
2023/12/03 12:04:35;;;;;;;27.65;14.23;;;-1.50;99.90;;;;;;5013432;28;20643;-84
2023/12/03 12:07:14;;;;;;;23.95;13.15;;;-1.40;99.90;;;;;;5011337;28;20108;-84
2023/12/03 12:09:40;;;;;;;31.10;15.02;;;-1.40;99.90;;;;;;5005875;28;20026;-84
2023/12/03 12:12:06;;;;;;;28.20;14.27;;;-1.30;99.90;;;;;;5010663;28;20022;-84
2023/12/03 12:14:32;;;;;;;29.80;16.48;;;-1.20;99.90;;;;;;5007529;28;20033;-85
2023/12/03 12:16:57;;;;;;;33.50;17.77;;;-1.20;99.90;;;;;;5012958;28;20035;-84
2023/12/03 12:19:23;;;;;;;52.92;25.88;;;-1.10;99.90;;;;;;5009239;28;20053;-84
2023/12/03 12:21:56;;;;;;;49.35;24.52;;;-1.00;99.90;;;;;;5012758;28;20477;-84
2023/12/03 12:24:23;;;;;;;38.08;20.65;;;-1.00;99.90;;;;;;5009051;28;20037;-85